Keyes, OK (73947)

10:25 AM CDT on August 27, 2016 (GMT -0500)
Fort Wiegers | | Change Station

Elev 3554 ft 37.04 °N, 101.97 °W | Updated 6 seconds ago

Clear
Clear
75.2 °F
Feels Like 77 °F
N
13.0
Wind Variable Wind from SW
Gusts 15.0 mph

Today
High -- | Low -- °F
--% Chance of Precip.
Yesterday
High -- | Low -- °F
Precip. -- in
Pressure 29.92 in
Visibility 10.0 miles
Clouds Clear
Heat Index 77 °F
Dew Point 60 °F
Humidity 60%
Rainfall 0.00 in
Snow Depth Not available.
7:16 AM 8:23 PM
Waning Crescent, 23% visible
METAR KGUY 271453Z AUTO 22011KT 10SM CLR 23/17 A3005 RMK AO2 SLP132 T02280167 50001
Pressure 29.92 in
Visibility 10.0 miles
Clouds Clear
Heat Index 77 °F
Dew Point 60 °F
Humidity 60%
Rainfall 0.00 in
Snow Depth Not available.
7:16 AM 8:23 PM
Waning Crescent, 23% visible
METAR KGUY 271453Z AUTO 22011KT 10SM CLR 23/17 A3005 RMK AO2 SLP132 T02280167 50001

10-Day Weather Forecast

Almanac

Astronomy

Aug. 27, 2016 Rise Set
Actual Time
Civil Twilight
Nautical Twilight
Astronomical Twilight
Moon
Length of Visible Light
Length of Day
Tomorrow will be .
, % of the Moon is Illuminated

Today's Extremes

State Highs State Lows

Community

WunderPhotos

Upload Photos

1,935,356 photos uploaded!

WunderBlog® & News

Nearby

Air Quality

  Air Quality AQ Index Pollutant
Not available.

Snow Depth

Station Depth Elevation

Earthquake Activity

City Distance Mag. Time & Date
Minimum magnitude displayed is 2.5.

Coastal Water Temperatures

Place Temperature

Stations

Nearby Weather Stations

Station Location Temp. Windchill Dew Point Humidity Wind Precip. Elev Updated Type
                   

Watches & Warnings

There are currently no watches in effect.